sensor_id;sensor_type;location;lat;lon;timestamp;pressure;altitude;pressure_sealevel;temperature;humidity
40502;BME280;29631;49.168;9.848;2022-10-31T00:01:20;97105.25;;;19.34;81.47
40502;BME280;29631;49.168;9.848;2022-10-31T00:03:46;97107.34;;;19.32;81.25
40502;BME280;29631;49.168;9.848;2022-10-31T00:06:13;97114.09;;;19.34;81.68
40502;BME280;29631;49.168;9.848;2022-10-31T00:08:39;97114.53;;;19.26;81.31
40502;BME280;29631;49.168;9.848;2022-10-31T00:11:09;97103.75;;;19.21;81.53
40502;BME280;29631;49.168;9.848;2022-10-31T00:13:35;97111.78;;;19.21;81.04
40502;BME280;29631;49.168;9.848;2022-10-31T00:16:01;97107.72;;;19.19;81.54
40502;BME280;29631;49.168;9.848;2022-10-31T00:18:26;97112.91;;;19.25;81.77
40502;BME280;29631;49.168;9.848;2022-10-31T00:21:03;97102.63;;;19.17;81.43
40502;BME280;29631;49.168;9.848;2022-10-31T00:23:29;97087.22;;;19.08;81.51
40502;BME280;29631;49.168;9.848;2022-10-31T00:26:03;97087.75;;;19.05;81.54
40502;BME280;29631;49.168;9.848;2022-10-31T00:28:30;97111.69;;;19.16;81.47
40502;BME280;29631;49.168;9.848;2022-10-31T00:31:06;97114.69;;;19.03;81.50
40502;BME280;29631;49.168;9.848;2022-10-31T00:33:35;97110.50;;;19.07;81.41
40502;BME280;29631;49.168;9.848;2022-10-31T00:36:03;97089.47;;;18.94;81.63
40502;BME280;29631;49.168;9.848;2022-10-31T00:38:29;97092.13;;;18.94;81.08
40502;BME280;29631;49.168;9.848;2022-10-31T00:40:55;97120.59;;;19.05;81.44
40502;BME280;29631;49.168;9.848;2022-10-31T00:43:21;97115.19;;;19.00;81.83
40502;BME280;29631;49.168;9.848;2022-10-31T00:45:46;97100.16;;;18.94;81.89
40502;BME280;29631;49.168;9.848;2022-10-31T00:48:12;97108.72;;;18.96;81.56
40502;BME280;29631;49.168;9.848;2022-10-31T00:50:39;97129.09;;;19.02;81.91
40502;BME280;29631;49.168;9.848;2022-10-31T00:53:05;97119.91;;;18.93;81.38
40502;BME280;29631;49.168;9.848;2022-10-31T00:55:31;97103.22;;;18.87;81.98
40502;BME280;29631;49.168;9.848;2022-10-31T00:57:56;97112.88;;;18.88;81.81
40502;BME280;29631;49.168;9.848;2022-10-31T01:00:22;97076.78;;;18.69;82.09
40502;BME280;29631;49.168;9.848;2022-10-31T01:02:48;97122.50;;;18.89;81.41
40502;BME280;29631;49.168;9.848;2022-10-31T01:05:14;97087.53;;;18.74;81.87
40502;BME280;29631;49.168;9.848;2022-10-31T01:07:41;97106.38;;;18.84;81.66
40502;BME280;29631;49.168;9.848;2022-10-31T01:10:08;97108.50;;;18.82;82.43
40502;BME280;29631;49.168;9.848;2022-10-31T01:12:45;97097.41;;;18.73;81.85
40502;BME280;29631;49.168;9.848;2022-10-31T01:15:14;97072.31;;;18.58;81.96
40502;BME280;29631;49.168;9.848;2022-10-31T01:17:40;97091.75;;;18.70;81.90
40502;BME280;29631;49.168;9.848;2022-10-31T01:20:08;97104.69;;;18.78;81.61
40502;BME280;29631;49.168;9.848;2022-10-31T01:22:35;97084.22;;;18.67;81.48
40502;BME280;29631;49.168;9.848;2022-10-31T01:25:01;97105.50;;;18.78;81.48
40502;BME280;29631;49.168;9.848;2022-10-31T01:27:27;97104.63;;;18.73;81.80
40502;BME280;29631;49.168;9.848;2022-10-31T01:29:53;97088.66;;;18.61;82.27
40502;BME280;29631;49.168;9.848;2022-10-31T01:32:19;97100.81;;;18.69;82.14
40502;BME280;29631;49.168;9.848;2022-10-31T01:34:44;97086.50;;;18.58;82.50
40502;BME280;29631;49.168;9.848;2022-10-31T01:37:10;97075.91;;;18.47;81.81
40502;BME280;29631;49.168;9.848;2022-10-31T01:39:36;97078.63;;;18.52;82.07
40502;BME280;29631;49.168;9.848;2022-10-31T01:42:02;97113.63;;;18.67;82.28
40502;BME280;29631;49.168;9.848;2022-10-31T01:47:08;97094.84;;;18.62;82.16
40502;BME280;29631;49.168;9.848;2022-10-31T01:49:43;97102.34;;;18.65;82.53
40502;BME280;29631;49.168;9.848;2022-10-31T01:52:31;97099.84;;;18.58;82.54
40502;BME280;29631;49.168;9.848;2022-10-31T01:55:07;97072.66;;;18.45;82.16
40502;BME280;29631;49.168;9.848;2022-10-31T01:57:35;97023.19;;;18.10;82.39
40502;BME280;29631;49.168;9.848;2022-10-31T02:00:08;97008.47;;;18.07;82.12
40502;BME280;29631;49.168;9.848;2022-10-31T02:02:35;97082.94;;;18.53;82.18
40502;BME280;29631;49.168;9.848;2022-10-31T02:05:06;97095.09;;;18.60;82.49
40502;BME280;29631;49.168;9.848;2022-10-31T02:07:45;97089.50;;;18.62;82.99
40502;BME280;29631;49.168;9.848;2022-10-31T02:10:15;97088.34;;;18.58;82.46
40502;BME280;29631;49.168;9.848;2022-10-31T02:12:41;97096.94;;;18.60;82.33
40502;BME280;29631;49.168;9.848;2022-10-31T02:15:08;97075.44;;;18.50;82.78
40502;BME280;29631;49.168;9.848;2022-10-31T02:17:34;97075.81;;;18.42;82.16
40502;BME280;29631;49.168;9.848;2022-10-31T02:34:44;97091.91;;;18.30;82.76
40502;BME280;29631;49.168;9.848;2022-10-31T02:37:25;97101.63;;;18.36;82.27
40502;BME280;29631;49.168;9.848;2022-10-31T02:40:22;97090.28;;;18.29;83.02
40502;BME280;29631;49.168;9.848;2022-10-31T02:48:30;97086.25;;;18.27;82.85
40502;BME280;29631;49.168;9.848;2022-10-31T02:51:00;97068.44;;;18.16;83.04
40502;BME280;29631;49.168;9.848;2022-10-31T02:53:36;97085.13;;;18.23;82.55
40502;BME280;29631;49.168;9.848;2022-10-31T02:56:14;97088.84;;;18.22;82.59
40502;BME280;29631;49.168;9.848;2022-10-31T02:59:01;97089.75;;;18.27;82.38
40502;BME280;29631;49.168;9.848;2022-10-31T03:01:39;97091.91;;;18.30;82.52
40502;BME280;29631;49.168;9.848;2022-10-31T03:15:37;97089.28;;;18.19;83.29
40502;BME280;29631;49.168;9.848;2022-10-31T03:20:39;97085.41;;;18.10;83.07
40502;BME280;29631;49.168;9.848;2022-10-31T03:23:13;97091.63;;;18.16;82.91
40502;BME280;29631;49.168;9.848;2022-10-31T03:25:41;97067.56;;;17.99;83.14
40502;BME280;29631;49.168;9.848;2022-10-31T03:28:11;97064.38;;;17.97;83.18
40502;BME280;29631;49.168;9.848;2022-10-31T03:30:41;97087.81;;;18.12;82.66
40502;BME280;29631;49.168;9.848;2022-10-31T03:33:13;97093.75;;;18.14;82.99
40502;BME280;29631;49.168;9.848;2022-10-31T03:35:44;97096.16;;;18.15;82.91
40502;BME280;29631;49.168;9.848;2022-10-31T03:38:11;97085.22;;;18.00;82.75
40502;BME280;29631;49.168;9.848;2022-10-31T03:40:39;97067.81;;;17.98;83.04
40502;BME280;29631;49.168;9.848;2022-10-31T03:43:10;97097.72;;;18.11;82.72
40502;BME280;29631;49.168;9.848;2022-10-31T03:45:45;97099.88;;;18.14;82.28
40502;BME280;29631;49.168;9.848;2022-10-31T03:48:14;97098.50;;;18.12;83.08
40502;BME280;29631;49.168;9.848;2022-10-31T03:54:11;97094.19;;;17.94;83.04
40502;BME280;29631;49.168;9.848;2022-10-31T03:57:27;97105.25;;;18.03;82.69
40502;BME280;29631;49.168;9.848;2022-10-31T04:00:02;97084.72;;;17.87;83.03
40502;BME280;29631;49.168;9.848;2022-10-31T04:02:32;97068.84;;;17.80;82.79
40502;BME280;29631;49.168;9.848;2022-10-31T04:04:59;97075.47;;;17.78;83.09
40502;BME280;29631;49.168;9.848;2022-10-31T04:07:33;97100.56;;;17.93;82.96
40502;BME280;29631;49.168;9.848;2022-10-31T04:10:05;97086.47;;;17.81;83.18
40502;BME280;29631;49.168;9.848;2022-10-31T04:12:32;97092.31;;;17.78;82.89
40502;BME280;29631;49.168;9.848;2022-10-31T04:15:02;97107.00;;;17.81;83.04
40502;BME280;29631;49.168;9.848;2022-10-31T04:17:34;97096.34;;;17.81;83.62
40502;BME280;29631;49.168;9.848;2022-10-31T04:20:02;97082.34;;;17.74;83.47
40502;BME280;29631;49.168;9.848;2022-10-31T04:22:28;97073.66;;;17.67;82.80
40502;BME280;29631;49.168;9.848;2022-10-31T04:24:54;97044.38;;;17.55;83.23
40502;BME280;29631;49.168;9.848;2022-10-31T04:27:19;97078.97;;;17.78;83.04
40502;BME280;29631;49.168;9.848;2022-10-31T04:29:45;97077.81;;;17.74;83.14
40502;BME280;29631;49.168;9.848;2022-10-31T04:32:11;97096.09;;;17.82;83.53
40502;BME280;29631;49.168;9.848;2022-10-31T04:34:36;97059.41;;;17.61;83.07
40502;BME280;29631;49.168;9.848;2022-10-31T04:37:02;97065.09;;;17.65;83.00
40502;BME280;29631;49.168;9.848;2022-10-31T04:39:28;97055.16;;;17.60;83.36
40502;BME280;29631;49.168;9.848;2022-10-31T04:41:54;97077.72;;;17.69;82.67
40502;BME280;29631;49.168;9.848;2022-10-31T04:44:19;97078.88;;;17.73;83.47
40502;BME280;29631;49.168;9.848;2022-10-31T04:46:45;97040.28;;;17.37;83.27
40502;BME280;29631;49.168;9.848;2022-10-31T04:49:11;97058.03;;;17.59;82.66
40502;BME280;29631;49.168;9.848;2022-10-31T04:51:37;97066.38;;;17.62;83.32
40502;BME280;29631;49.168;9.848;2022-10-31T04:54:03;97072.28;;;17.64;82.84
40502;BME280;29631;49.168;9.848;2022-10-31T04:56:28;97085.72;;;17.69;83.30
40502;BME280;29631;49.168;9.848;2022-10-31T04:58:54;97083.03;;;17.69;82.78
40502;BME280;29631;49.168;9.848;2022-10-31T05:01:20;97061.88;;;17.63;83.26
40502;BME280;29631;49.168;9.848;2022-10-31T05:03:45;96997.88;;;17.24;83.05
40502;BME280;29631;49.168;9.848;2022-10-31T05:06:11;97067.88;;;17.70;82.93
40502;BME280;29631;49.168;9.848;2022-10-31T05:08:37;97037.09;;;17.51;83.09
40502;BME280;29631;49.168;9.848;2022-10-31T05:11:04;97041.16;;;17.53;83.04
40502;BME280;29631;49.168;9.848;2022-10-31T05:13:30;97048.09;;;17.54;82.94
40502;BME280;29631;49.168;9.848;2022-10-31T05:15:56;97056.88;;;17.66;83.39
40502;BME280;29631;49.168;9.848;2022-10-31T05:18:22;97027.97;;;17.47;83.31
40502;BME280;29631;49.168;9.848;2022-10-31T05:20:48;97045.53;;;17.59;82.86
40502;BME280;29631;49.168;9.848;2022-10-31T05:23:14;97040.66;;;17.56;83.10
40502;BME280;29631;49.168;9.848;2022-10-31T05:25:40;97040.09;;;17.54;83.66
40502;BME280;29631;49.168;9.848;2022-10-31T05:28:07;97057.34;;;17.63;83.49
40502;BME280;29631;49.168;9.848;2022-10-31T05:30:34;97030.50;;;17.53;84.01
40502;BME280;29631;49.168;9.848;2022-10-31T05:33:00;97042.97;;;17.64;83.92
40502;BME280;29631;49.168;9.848;2022-10-31T05:35:29;97045.13;;;17.67;83.61
40502;BME280;29631;49.168;9.848;2022-10-31T05:37:56;97026.03;;;17.59;84.18
40502;BME280;29631;49.168;9.848;2022-10-31T05:40:24;97042.47;;;17.67;83.97
40502;BME280;29631;49.168;9.848;2022-10-31T05:42:55;97040.63;;;17.68;83.85
40502;BME280;29631;49.168;9.848;2022-10-31T05:45:22;97033.09;;;17.65;83.74
40502;BME280;29631;49.168;9.848;2022-10-31T05:47:53;97050.59;;;17.72;84.61
40502;BME280;29631;49.168;9.848;2022-10-31T05:50:19;97051.03;;;17.69;84.47
40502;BME280;29631;49.168;9.848;2022-10-31T05:52:45;97048.13;;;17.71;84.45
40502;BME280;29631;49.168;9.848;2022-10-31T05:55:11;97032.28;;;17.64;84.42
40502;BME280;29631;49.168;9.848;2022-10-31T05:57:37;97014.72;;;17.52;84.15
40502;BME280;29631;49.168;9.848;2022-10-31T06:00:04;97050.00;;;17.70;83.86
40502;BME280;29631;49.168;9.848;2022-10-31T06:02:30;97035.03;;;17.69;83.59
40502;BME280;29631;49.168;9.848;2022-10-31T06:05:00;97036.66;;;17.70;84.00
40502;BME280;29631;49.168;9.848;2022-10-31T06:07:26;97038.28;;;17.71;83.83
40502;BME280;29631;49.168;9.848;2022-10-31T06:09:52;97053.00;;;17.74;83.36
40502;BME280;29631;49.168;9.848;2022-10-31T06:12:18;97026.13;;;17.64;83.90
40502;BME280;29631;49.168;9.848;2022-10-31T06:14:43;97039.91;;;17.72;83.91
40502;BME280;29631;49.168;9.848;2022-10-31T06:17:09;97032.38;;;17.69;84.27
40502;BME280;29631;49.168;9.848;2022-10-31T06:19:35;97033.41;;;17.68;83.81
40502;BME280;29631;49.168;9.848;2022-10-31T06:22:01;97037.13;;;17.67;84.24
40502;BME280;29631;49.168;9.848;2022-10-31T06:24:26;97034.47;;;17.67;83.92
40502;BME280;29631;49.168;9.848;2022-10-31T06:26:52;97048.00;;;17.77;83.85
40502;BME280;29631;49.168;9.848;2022-10-31T06:29:18;97050.09;;;17.75;84.93
40502;BME280;29631;49.168;9.848;2022-10-31T06:31:43;97032.38;;;17.69;83.86
40502;BME280;29631;49.168;9.848;2022-10-31T06:34:09;96984.22;;;17.32;83.88
40502;BME280;29631;49.168;9.848;2022-10-31T06:36:35;97006.84;;;17.57;83.73
40502;BME280;29631;49.168;9.848;2022-10-31T06:39:00;97022.03;;;17.73;84.35
40502;BME280;29631;49.168;9.848;2022-10-31T06:41:26;97021.13;;;17.67;84.58
40502;BME280;29631;49.168;9.848;2022-10-31T06:43:52;97040.56;;;17.79;84.49
40502;BME280;29631;49.168;9.848;2022-10-31T06:46:18;97032.31;;;17.81;84.67
40502;BME280;29631;49.168;9.848;2022-10-31T06:48:43;97045.03;;;17.90;84.36
40502;BME280;29631;49.168;9.848;2022-10-31T06:51:09;96993.25;;;17.58;84.73
40502;BME280;29631;49.168;9.848;2022-10-31T06:53:35;97046.88;;;17.90;84.51
40502;BME280;29631;49.168;9.848;2022-10-31T06:56:00;97038.66;;;17.91;84.46
40502;BME280;29631;49.168;9.848;2022-10-31T06:58:26;97049.16;;;17.98;84.56
40502;BME280;29631;49.168;9.848;2022-10-31T07:00:52;97039.31;;;17.98;84.67
40502;BME280;29631;49.168;9.848;2022-10-31T07:03:18;97032.34;;;17.97;84.70
40502;BME280;29631;49.168;9.848;2022-10-31T07:05:43;97063.72;;;18.07;84.90
40502;BME280;29631;49.168;9.848;2022-10-31T07:08:13;97054.19;;;18.11;85.43
40502;BME280;29631;49.168;9.848;2022-10-31T07:10:41;97035.75;;;18.09;85.77
40502;BME280;29631;49.168;9.848;2022-10-31T07:13:14;97037.84;;;18.07;86.08
40502;BME280;29631;49.168;9.848;2022-10-31T07:15:42;97040.91;;;18.16;85.93
40502;BME280;29631;49.168;9.848;2022-10-31T07:18:11;97048.56;;;18.23;85.56
40502;BME280;29631;49.168;9.848;2022-10-31T07:20:37;97035.44;;;18.22;86.05
40502;BME280;29631;49.168;9.848;2022-10-31T07:23:03;97041.91;;;18.26;86.15
40502;BME280;29631;49.168;9.848;2022-10-31T07:25:29;97038.50;;;18.14;86.04
40502;BME280;29631;49.168;9.848;2022-10-31T07:27:55;97004.28;;;18.11;86.63
40502;BME280;29631;49.168;9.848;2022-10-31T07:30:21;97037.22;;;18.33;86.47
40502;BME280;29631;49.168;9.848;2022-10-31T07:32:50;97010.84;;;18.20;86.66
40502;BME280;29631;49.168;9.848;2022-10-31T07:35:27;97029.28;;;18.38;86.98
40502;BME280;29631;49.168;9.848;2022-10-31T07:37:53;97033.69;;;18.44;87.20
40502;BME280;29631;49.168;9.848;2022-10-31T07:40:20;97045.63;;;18.58;87.25
40502;BME280;29631;49.168;9.848;2022-10-31T07:42:52;97041.41;;;18.62;86.97
40502;BME280;29631;49.168;9.848;2022-10-31T07:45:20;97033.47;;;18.67;87.41
40502;BME280;29631;49.168;9.848;2022-10-31T07:47:48;97042.69;;;18.76;87.64
40502;BME280;29631;49.168;9.848;2022-10-31T07:50:27;97038.00;;;18.83;87.67
40502;BME280;29631;49.168;9.848;2022-10-31T07:53:01;97048.31;;;18.95;88.46
40502;BME280;29631;49.168;9.848;2022-10-31T07:55:28;97029.53;;;18.91;87.49
40502;BME280;29631;49.168;9.848;2022-10-31T07:57:58;97051.19;;;19.10;88.08
40502;BME280;29631;49.168;9.848;2022-10-31T08:00:24;97042.13;;;19.11;88.44
40502;BME280;29631;49.168;9.848;2022-10-31T08:03:03;97052.50;;;19.29;88.07
40502;BME280;29631;49.168;9.848;2022-10-31T08:05:29;96984.19;;;18.95;87.79
40502;BME280;29631;49.168;9.848;2022-10-31T08:07:56;97028.56;;;19.39;88.15
40502;BME280;29631;49.168;9.848;2022-10-31T08:10:23;97023.88;;;19.51;88.19
40502;BME280;29631;49.168;9.848;2022-10-31T08:13:06;97051.53;;;20.09;87.83
40502;BME280;29631;49.168;9.848;2022-10-31T08:15:33;97044.16;;;20.57;86.61
40502;BME280;29631;49.168;9.848;2022-10-31T08:18:02;97044.91;;;20.89;85.73
40502;BME280;29631;49.168;9.848;2022-10-31T08:20:28;97027.84;;;21.00;85.81
40502;BME280;29631;49.168;9.848;2022-10-31T08:22:56;97009.84;;;20.96;85.80
40502;BME280;29631;49.168;9.848;2022-10-31T08:25:24;96970.88;;;20.78;86.08
40502;BME280;29631;49.168;9.848;2022-10-31T08:27:52;97007.25;;;21.16;86.10
40502;BME280;29631;49.168;9.848;2022-10-31T08:30:20;97036.63;;;21.52;85.98
40502;BME280;29631;49.168;9.848;2022-10-31T08:32:47;97015.72;;;21.54;85.92
40502;BME280;29631;49.168;9.848;2022-10-31T08:35:13;96996.44;;;21.67;85.83
40502;BME280;29631;49.168;9.848;2022-10-31T08:37:39;97013.16;;;22.03;85.30
40502;BME280;29631;49.168;9.848;2022-10-31T08:40:05;97036.03;;;22.31;85.56
40502;BME280;29631;49.168;9.848;2022-10-31T08:42:32;97026.34;;;22.50;85.30
40502;BME280;29631;49.168;9.848;2022-10-31T08:44:58;97019.09;;;22.55;85.34
40502;BME280;29631;49.168;9.848;2022-10-31T08:47:23;97022.31;;;22.62;85.14
40502;BME280;29631;49.168;9.848;2022-10-31T08:49:49;97019.84;;;22.61;85.64
40502;BME280;29631;49.168;9.848;2022-10-31T08:52:15;96996.50;;;22.46;86.00
40502;BME280;29631;49.168;9.848;2022-10-31T08:54:41;96988.72;;;22.45;85.88
40502;BME280;29631;49.168;9.848;2022-10-31T08:57:07;97019.34;;;22.64;86.53
40502;BME280;29631;49.168;9.848;2022-10-31T08:59:32;97026.59;;;22.68;86.47
40502;BME280;29631;49.168;9.848;2022-10-31T09:01:58;97015.28;;;22.71;86.61
40502;BME280;29631;49.168;9.848;2022-10-31T09:04:24;97024.13;;;22.86;86.65
40502;BME280;29631;49.168;9.848;2022-10-31T09:06:50;97022.22;;;22.92;86.09
40502;BME280;29631;49.168;9.848;2022-10-31T09:09:15;97006.88;;;22.97;85.95
40502;BME280;29631;49.168;9.848;2022-10-31T09:11:41;97003.34;;;23.17;85.78
40502;BME280;29631;49.168;9.848;2022-10-31T09:14:07;96997.44;;;23.20;85.66
40502;BME280;29631;49.168;9.848;2022-10-31T09:16:33;97012.69;;;23.34;85.36
40502;BME280;29631;49.168;9.848;2022-10-31T09:18:58;96996.84;;;23.33;85.66
40502;BME280;29631;49.168;9.848;2022-10-31T09:21:24;97016.16;;;23.44;85.01
40502;BME280;29631;49.168;9.848;2022-10-31T09:23:50;97016.69;;;23.41;85.50
40502;BME280;29631;49.168;9.848;2022-10-31T09:26:15;96998.41;;;23.39;85.91
40502;BME280;29631;49.168;9.848;2022-10-31T09:28:41;97016.72;;;23.37;86.08
40502;BME280;29631;49.168;9.848;2022-10-31T09:31:07;97000.03;;;23.40;86.05
40502;BME280;29631;49.168;9.848;2022-10-31T09:33:33;96990.09;;;23.35;86.36
40502;BME280;29631;49.168;9.848;2022-10-31T09:35:59;96959.50;;;23.16;85.93
40502;BME280;29631;49.168;9.848;2022-10-31T09:38:25;96983.09;;;23.34;86.41
40502;BME280;29631;49.168;9.848;2022-10-31T09:55:59;96992.56;;;23.70;85.77
40502;BME280;29631;49.168;9.848;2022-10-31T09:58:28;96982.31;;;23.77;85.65
40502;BME280;29631;49.168;9.848;2022-10-31T10:01:00;96978.25;;;23.84;85.73
40502;BME280;29631;49.168;9.848;2022-10-31T10:03:42;96976.56;;;23.93;84.53
40502;BME280;29631;49.168;9.848;2022-10-31T10:06:24;96977.03;;;24.00;84.95
40502;BME280;29631;49.168;9.848;2022-10-31T10:08:53;96976.16;;;24.10;84.85
40502;BME280;29631;49.168;9.848;2022-10-31T10:17:58;96979.22;;;24.31;85.57
40502;BME280;29631;49.168;9.848;2022-10-31T10:23:51;96971.88;;;24.42;84.80
40502;BME280;29631;49.168;9.848;2022-10-31T10:26:22;96968.59;;;24.45;85.12
40502;BME280;29631;49.168;9.848;2022-10-31T10:28:57;96971.28;;;24.45;84.70
40502;BME280;29631;49.168;9.848;2022-10-31T10:31:31;96966.72;;;24.40;85.30
40502;BME280;29631;49.168;9.848;2022-10-31T10:34:20;96969.19;;;24.42;85.33
40502;BME280;29631;49.168;9.848;2022-10-31T10:37:00;96958.69;;;24.35;85.97
40502;BME280;29631;49.168;9.848;2022-10-31T10:39:46;96956.81;;;24.31;85.64
40502;BME280;29631;49.168;9.848;2022-10-31T10:42:16;96941.78;;;24.25;85.55
40502;BME280;29631;49.168;9.848;2022-10-31T10:45:17;96952.03;;;24.28;85.63
40502;BME280;29631;49.168;9.848;2022-10-31T10:48:24;96958.69;;;24.35;86.59
40502;BME280;29631;49.168;9.848;2022-10-31T10:50:52;96952.50;;;24.35;86.52
40502;BME280;29631;49.168;9.848;2022-10-31T10:53:58;96941.19;;;24.33;86.52
40502;BME280;29631;49.168;9.848;2022-10-31T10:57:11;96945.97;;;24.41;87.10
40502;BME280;29631;49.168;9.848;2022-10-31T10:59:40;96921.75;;;24.36;86.73
40502;BME280;29631;49.168;9.848;2022-10-31T11:02:22;96922.53;;;24.36;87.07
40502;BME280;29631;49.168;9.848;2022-10-31T11:05:00;96925.47;;;24.45;87.23
40502;BME280;29631;49.168;9.848;2022-10-31T11:07:40;96923.06;;;24.43;86.74
40502;BME280;29631;49.168;9.848;2022-10-31T11:10:12;96919.28;;;24.44;86.78
40502;BME280;29631;49.168;9.848;2022-10-31T11:12:45;96925.41;;;24.50;86.53
40502;BME280;29631;49.168;9.848;2022-10-31T11:15:24;96925.06;;;24.56;87.09
40502;BME280;29631;49.168;9.848;2022-10-31T11:17:54;96926.38;;;24.59;86.85
40502;BME280;29631;49.168;9.848;2022-10-31T11:22:47;96852.91;;;24.20;86.53
40502;BME280;29631;49.168;9.848;2022-10-31T11:27:46;96911.13;;;24.73;87.34
40502;BME280;29631;49.168;9.848;2022-10-31T11:30:13;96905.75;;;24.73;87.27
40502;BME280;29631;49.168;9.848;2022-10-31T11:32:50;96900.91;;;24.70;87.07
40502;BME280;29631;49.168;9.848;2022-10-31T11:35:20;96906.75;;;24.77;86.55
40502;BME280;29631;49.168;9.848;2022-10-31T11:37:49;96899.81;;;24.71;86.67
40502;BME280;29631;49.168;9.848;2022-10-31T11:40:25;96899.53;;;24.72;86.59
40502;BME280;29631;49.168;9.848;2022-10-31T11:42:55;96907.81;;;24.81;86.56
40502;BME280;29631;49.168;9.848;2022-10-31T11:45:34;96907.81;;;24.81;86.56
40502;BME280;29631;49.168;9.848;2022-10-31T11:48:12;96893.19;;;24.82;86.14
40502;BME280;29631;49.168;9.848;2022-10-31T11:50:42;96897.81;;;24.81;86.54
40502;BME280;29631;49.168;9.848;2022-10-31T11:53:29;96881.16;;;24.74;86.93
40502;BME280;29631;49.168;9.848;2022-10-31T11:56:13;96885.19;;;24.77;86.30
40502;BME280;29631;49.168;9.848;2022-10-31T11:58:40;96859.34;;;24.71;86.31
40502;BME280;29631;49.168;9.848;2022-10-31T12:01:27;96870.06;;;24.76;86.69
40502;BME280;29631;49.168;9.848;2022-10-31T12:03:59;96864.13;;;24.79;86.83
40502;BME280;29631;49.168;9.848;2022-10-31T12:06:37;96862.81;;;24.76;86.67
40502;BME280;29631;49.168;9.848;2022-10-31T12:09:25;96861.88;;;24.86;86.94
40502;BME280;29631;49.168;9.848;2022-10-31T12:15:33;96850.47;;;24.88;86.78
40502;BME280;29631;49.168;9.848;2022-10-31T12:18:27;96779.78;;;24.50;87.49
40502;BME280;29631;49.168;9.848;2022-10-31T12:21:42;96842.34;;;24.93;87.59
40502;BME280;29631;49.168;9.848;2022-10-31T12:35:25;96829.78;;;25.02;87.07
40502;BME280;29631;49.168;9.848;2022-10-31T12:56:50;96801.53;;;25.18;87.42
40502;BME280;29631;49.168;9.848;2022-10-31T12:59:35;96800.13;;;25.21;87.25
40502;BME280;29631;49.168;9.848;2022-10-31T13:04:59;96791.22;;;25.20;88.04
40502;BME280;29631;49.168;9.848;2022-10-31T13:13:44;96769.03;;;25.23;87.08
40502;BME280;29631;49.168;9.848;2022-10-31T13:16:20;96771.94;;;25.45;86.61
40502;BME280;29631;49.168;9.848;2022-10-31T13:21:27;96766.19;;;25.65;86.39
40502;BME280;29631;49.168;9.848;2022-10-31T13:23:59;96754.25;;;25.53;86.47
40502;BME280;29631;49.168;9.848;2022-10-31T13:31:44;96744.78;;;25.37;87.07
40502;BME280;29631;49.168;9.848;2022-10-31T13:34:35;96753.50;;;25.34;87.79
40502;BME280;29631;49.168;9.848;2022-10-31T13:37:34;96742.56;;;25.25;87.76
40502;BME280;29631;49.168;9.848;2022-10-31T13:40:33;96743.13;;;25.22;87.50
40502;BME280;29631;49.168;9.848;2022-10-31T13:46:45;96738.41;;;25.14;87.34
40502;BME280;29631;49.168;9.848;2022-10-31T13:49:38;96730.91;;;25.11;87.64
40502;BME280;29631;49.168;9.848;2022-10-31T13:54:47;96723.38;;;25.08;87.66
40502;BME280;29631;49.168;9.848;2022-10-31T13:57:26;96726.09;;;25.08;87.50
40502;BME280;29631;49.168;9.848;2022-10-31T13:59:58;96716.34;;;25.07;87.85
40502;BME280;29631;49.168;9.848;2022-10-31T14:02:29;96720.69;;;25.08;87.53
40502;BME280;29631;49.168;9.848;2022-10-31T14:05:32;96701.06;;;25.03;87.22
40502;BME280;29631;49.168;9.848;2022-10-31T14:08:02;96709.16;;;25.03;87.59
40502;BME280;29631;49.168;9.848;2022-10-31T14:10:33;96711.03;;;25.02;86.74
40502;BME280;29631;49.168;9.848;2022-10-31T14:16:02;96702.22;;;24.97;87.19
40502;BME280;29631;49.168;9.848;2022-10-31T14:18:32;96715.34;;;25.03;87.09
40502;BME280;29631;49.168;9.848;2022-10-31T14:20:58;96706.03;;;24.96;86.54
40502;BME280;29631;49.168;9.848;2022-10-31T14:26:19;96706.81;;;24.96;86.56
40502;BME280;29631;49.168;9.848;2022-10-31T14:28:46;96695.00;;;24.92;86.31
40502;BME280;29631;49.168;9.848;2022-10-31T14:48:51;96697.19;;;24.90;85.99
40502;BME280;29631;49.168;9.848;2022-10-31T14:51:39;96680.56;;;24.84;85.94
40502;BME280;29631;49.168;9.848;2022-10-31T14:54:14;96698.00;;;24.91;85.83
40502;BME280;29631;49.168;9.848;2022-10-31T14:57:13;96683.78;;;24.86;86.69
40502;BME280;29631;49.168;9.848;2022-10-31T14:59:46;96680.34;;;24.80;86.40
40502;BME280;29631;49.168;9.848;2022-10-31T15:05:10;96663.16;;;24.58;86.02
40502;BME280;29631;49.168;9.848;2022-10-31T15:07:56;96681.09;;;24.67;86.34
40502;BME280;29631;49.168;9.848;2022-10-31T15:10:37;96691.97;;;24.62;86.53
40502;BME280;29631;49.168;9.848;2022-10-31T15:13:17;96691.66;;;24.64;86.96
40502;BME280;29631;49.168;9.848;2022-10-31T15:15:44;96677.25;;;24.55;86.88
40502;BME280;29631;49.168;9.848;2022-10-31T15:18:23;96693.66;;;24.58;86.93
40502;BME280;29631;49.168;9.848;2022-10-31T15:20:51;96629.09;;;24.25;87.35
40502;BME280;29631;49.168;9.848;2022-10-31T15:23:38;96671.41;;;24.48;87.07
40502;BME280;29631;49.168;9.848;2022-10-31T15:26:04;96693.69;;;24.53;87.31
40502;BME280;29631;49.168;9.848;2022-10-31T15:28:31;96677.38;;;24.45;86.76
40502;BME280;29631;49.168;9.848;2022-10-31T15:31:00;96677.44;;;24.40;86.88
40502;BME280;29631;49.168;9.848;2022-10-31T15:33:29;96670.19;;;24.35;86.98
40502;BME280;29631;49.168;9.848;2022-10-31T15:36:01;96673.94;;;24.39;86.66
40502;BME280;29631;49.168;9.848;2022-10-31T15:38:28;96668.91;;;24.33;86.87
40502;BME280;29631;49.168;9.848;2022-10-31T15:41:23;96666.84;;;24.25;87.27
40502;BME280;29631;49.168;9.848;2022-10-31T15:43:50;96671.50;;;24.19;86.83
40502;BME280;29631;49.168;9.848;2022-10-31T15:46:16;96665.94;;;24.11;87.09
40502;BME280;29631;49.168;9.848;2022-10-31T15:48:46;96650.84;;;23.92;86.80
40502;BME280;29631;49.168;9.848;2022-10-31T15:51:12;96670.94;;;23.99;86.79
40502;BME280;29631;49.168;9.848;2022-10-31T15:53:50;96651.25;;;23.80;86.70